createdAt,value
2024-02-29T00:01:44.848Z,14.90
2024-02-29T00:04:47.723Z,16.83
2024-02-29T00:07:50.512Z,16.80
2024-02-29T00:10:53.138Z,16.58
2024-02-29T00:13:56.148Z,15.63
2024-02-29T00:17:01.510Z,16.38
2024-02-29T00:20:10.210Z,16.50
2024-02-29T00:23:13.080Z,16.50
2024-02-29T00:26:19.616Z,16.37
2024-02-29T00:29:26.904Z,16.30
2024-02-29T00:32:29.763Z,17.30
2024-02-29T00:35:35.428Z,16.80
2024-02-29T00:38:39.970Z,18.40
2024-02-29T00:41:42.929Z,16.63
2024-02-29T00:44:45.757Z,17.07
2024-02-29T00:47:48.489Z,18.08
2024-02-29T00:50:51.273Z,17.50
2024-02-29T00:53:54.066Z,17.05
2024-02-29T00:56:56.862Z,16.42
2024-02-29T00:59:59.632Z,16.73
2024-02-29T01:03:03.712Z,17.55
2024-02-29T01:06:08.294Z,16.55
2024-02-29T01:09:11.235Z,18.48
2024-02-29T01:12:13.887Z,17.70
2024-02-29T01:15:17.212Z,17.57
2024-02-29T01:18:20.066Z,18.30
2024-02-29T01:21:22.917Z,17.30
2024-02-29T01:24:25.973Z,16.98
2024-02-29T01:27:28.889Z,17.77
2024-02-29T01:30:31.758Z,17.37
2024-02-29T01:33:34.627Z,18.50
2024-02-29T01:36:37.434Z,17.08
2024-02-29T01:39:40.240Z,18.38
2024-02-29T01:42:43.304Z,18.67
2024-02-29T01:45:47.161Z,18.53
2024-02-29T01:48:50.316Z,16.90
2024-02-29T01:51:54.302Z,18.17
2024-02-29T01:54:57.160Z,19.13
2024-02-29T01:57:59.930Z,18.80
2024-02-29T02:01:03.007Z,18.27
2024-02-29T02:04:05.839Z,17.80
2024-02-29T02:07:10.098Z,17.92
2024-02-29T02:10:13.290Z,19.50
2024-02-29T02:13:16.272Z,18.17
2024-02-29T02:16:19.081Z,18.57
2024-02-29T02:19:21.903Z,18.10
2024-02-29T02:22:25.807Z,18.02
2024-02-29T02:25:28.587Z,18.85
2024-02-29T02:28:31.349Z,19.20
2024-02-29T02:31:34.127Z,18.30
2024-02-29T02:34:36.942Z,18.83
2024-02-29T02:37:40.819Z,19.00
2024-02-29T02:40:43.553Z,19.88
2024-02-29T02:43:49.920Z,20.00
2024-02-29T02:46:52.701Z,18.37
2024-02-29T02:49:55.480Z,20.77
2024-02-29T02:53:05.612Z,20.55
2024-02-29T02:56:08.318Z,19.63
2024-02-29T02:59:11.168Z,20.57
2024-02-29T03:02:13.955Z,21.47
2024-02-29T03:05:17.169Z,21.05
2024-02-29T03:08:21.956Z,21.20
2024-02-29T03:11:24.747Z,21.25
2024-02-29T03:14:27.616Z,20.77
2024-02-29T03:17:31.034Z,20.40
2024-02-29T03:20:33.865Z,21.75
2024-02-29T03:23:36.562Z,20.15
2024-02-29T03:26:39.291Z,21.13
2024-02-29T03:29:43.613Z,20.80
2024-02-29T03:32:46.395Z,20.00
2024-02-29T03:35:49.190Z,19.55
2024-02-29T03:38:51.931Z,21.33
2024-02-29T03:41:54.581Z,20.38
2024-02-29T03:44:58.243Z,20.37
2024-02-29T03:48:01.236Z,20.37
2024-02-29T03:51:04.226Z,20.88
2024-02-29T03:54:06.937Z,20.70
2024-02-29T03:57:09.676Z,20.35
2024-02-29T04:00:13.378Z,19.87
2024-02-29T04:03:16.126Z,21.23
2024-02-29T04:06:18.934Z,21.23
2024-02-29T04:09:21.640Z,21.27
2024-02-29T04:12:24.372Z,20.15
2024-02-29T04:15:27.049Z,19.80
2024-02-29T04:18:29.791Z,18.93
2024-02-29T04:21:36.039Z,20.05
2024-02-29T04:24:38.913Z,20.60
2024-02-29T04:27:41.739Z,21.25
2024-02-29T04:30:44.625Z,21.05
2024-02-29T04:33:49.919Z,19.93
2024-02-29T04:36:54.594Z,20.73
2024-02-29T04:39:57.428Z,20.60
2024-02-29T04:43:00.367Z,20.83
2024-02-29T04:46:04.940Z,19.40
2024-02-29T04:49:07.802Z,19.40
2024-02-29T04:52:10.713Z,19.13
2024-02-29T04:55:13.572Z,19.05
2024-02-29T04:58:16.426Z,17.95
2024-02-29T05:01:19.268Z,17.63
2024-02-29T05:04:22.068Z,16.57
2024-02-29T05:07:24.825Z,17.60
2024-02-29T05:10:29.686Z,17.70
2024-02-29T05:13:32.340Z,17.92
2024-02-29T05:16:35.205Z,17.70
2024-02-29T05:19:39.262Z,18.17
2024-02-29T05:22:42.731Z,17.52
2024-02-29T05:25:45.405Z,18.13
2024-02-29T05:28:48.496Z,18.23
2024-02-29T05:31:54.945Z,18.10
2024-02-29T05:34:57.911Z,18.40
2024-02-29T05:38:00.872Z,18.90
2024-02-29T05:41:04.736Z,18.90
2024-02-29T05:44:09.031Z,18.50
2024-02-29T05:47:11.852Z,21.07
2024-02-29T05:50:14.640Z,20.37
2024-02-29T05:53:17.351Z,20.35
2024-02-29T05:56:19.994Z,20.10
2024-02-29T05:59:22.665Z,19.25
2024-02-29T06:02:25.475Z,18.77
2024-02-29T06:05:29.536Z,18.80
2024-02-29T06:08:32.326Z,17.83
2024-02-29T06:11:35.079Z,16.02
2024-02-29T06:14:37.839Z,16.45
2024-02-29T06:17:41.034Z,16.33
2024-02-29T06:20:43.943Z,16.57
2024-02-29T06:23:46.710Z,16.73
2024-02-29T06:27:10.980Z,15.57
2024-02-29T06:30:33.459Z,16.20
2024-02-29T06:33:37.602Z,15.15
2024-02-29T06:36:41.484Z,15.87
2024-02-29T06:39:44.235Z,16.05
2024-02-29T06:42:47.023Z,15.65
2024-02-29T06:45:50.866Z,14.93
2024-02-29T06:48:53.698Z,16.03
2024-02-29T06:51:56.612Z,15.77
2024-02-29T06:55:01.132Z,15.82
2024-02-29T06:58:06.041Z,15.52
2024-02-29T07:01:08.883Z,14.65
2024-02-29T07:04:11.824Z,15.07
2024-02-29T07:07:16.067Z,13.80
2024-02-29T07:10:18.951Z,14.38
2024-02-29T07:13:21.769Z,14.50
2024-02-29T07:16:24.652Z,14.75
2024-02-29T07:19:27.500Z,14.77
2024-02-29T07:22:30.234Z,15.30
2024-02-29T07:25:33.243Z,16.35
2024-02-29T07:28:35.997Z,19.25
2024-02-29T07:31:42.707Z,15.50
2024-02-29T07:34:45.645Z,13.90
2024-02-29T07:37:50.047Z,13.90
2024-02-29T07:40:53.832Z,12.60
2024-02-29T07:43:56.947Z,14.48
2024-02-29T07:46:59.716Z,13.73
2024-02-29T07:50:06.826Z,13.90
2024-02-29T07:53:10.310Z,11.83
2024-02-29T07:56:16.156Z,13.70
2024-02-29T07:59:18.881Z,12.70
2024-02-29T08:02:24.687Z,10.77
2024-02-29T08:05:28.060Z,13.88
2024-02-29T08:08:30.810Z,14.30
2024-02-29T08:11:33.576Z,12.57
2024-02-29T08:14:36.557Z,11.13
2024-02-29T08:17:39.426Z,11.98
2024-02-29T08:20:42.636Z,12.68
2024-02-29T08:23:47.362Z,11.83
2024-02-29T08:26:50.177Z,14.02
2024-02-29T08:29:53.007Z,13.65
2024-02-29T08:32:55.856Z,14.02
2024-02-29T08:35:59.108Z,12.57
2024-02-29T08:39:02.553Z,13.07
2024-02-29T08:42:05.598Z,13.13
2024-02-29T08:45:10.437Z,12.20
2024-02-29T08:48:13.454Z,12.48
2024-02-29T08:51:16.332Z,12.50
2024-02-29T08:54:19.061Z,11.33
2024-02-29T08:57:22.196Z,11.85
2024-02-29T09:00:25.382Z,11.05
2024-02-29T09:03:28.489Z,17.23
2024-02-29T09:06:41.261Z,15.02
2024-02-29T09:09:45.039Z,14.23
2024-02-29T09:12:48.047Z,12.27
2024-02-29T09:16:17.494Z,12.20
2024-02-29T09:19:20.430Z,12.55
2024-02-29T09:22:23.631Z,11.80
2024-02-29T09:25:26.429Z,12.23
2024-02-29T09:28:29.218Z,12.48
2024-02-29T09:31:33.018Z,11.70
2024-02-29T09:35:37.397Z,10.68
2024-02-29T09:38:40.334Z,11.45
2024-02-29T09:41:59.795Z,11.73
2024-02-29T09:45:38.930Z,11.30
2024-02-29T09:48:42.263Z,10.90
2024-02-29T09:51:46.091Z,12.57
2024-02-29T09:54:50.057Z,12.38
2024-02-29T09:57:54.129Z,12.47
2024-02-29T10:00:59.659Z,11.75
2024-02-29T10:04:04.651Z,12.27
2024-02-29T10:07:09.680Z,15.15
2024-02-29T10:10:18.210Z,12.85
2024-02-29T10:13:21.321Z,14.43
2024-02-29T10:16:27.118Z,13.23
2024-02-29T10:19:32.416Z,13.13
2024-02-29T10:22:35.205Z,14.48
2024-02-29T10:25:39.881Z,13.48
2024-02-29T10:28:43.768Z,13.40
2024-02-29T10:31:46.784Z,11.63
2024-02-29T10:34:50.118Z,12.88
2024-02-29T10:37:56.743Z,13.07
2024-02-29T10:41:04.387Z,13.57
2024-02-29T10:44:09.820Z,13.90
2024-02-29T10:47:16.422Z,12.82
2024-02-29T10:50:27.008Z,12.82
2024-02-29T10:54:01.492Z,13.10
2024-02-29T10:57:15.819Z,13.90
2024-02-29T11:00:21.750Z,12.03
2024-02-29T11:03:28.589Z,11.52
2024-02-29T11:07:01.252Z,11.40
2024-02-29T11:10:07.451Z,13.32
2024-02-29T11:13:11.043Z,12.80
2024-02-29T11:16:15.803Z,13.17
2024-02-29T11:19:19.986Z,13.57
2024-02-29T11:22:33.069Z,12.23
2024-02-29T11:25:36.021Z,11.68
2024-02-29T11:28:44.222Z,13.00
2024-02-29T11:31:51.801Z,12.63
2024-02-29T11:34:56.228Z,12.30
2024-02-29T11:38:02.592Z,13.23
2024-02-29T11:41:21.655Z,13.85
2024-02-29T11:44:24.682Z,12.20
2024-02-29T11:47:28.920Z,13.07
2024-02-29T11:54:22.060Z,13.50
2024-02-29T11:57:27.323Z,12.73
2024-02-29T12:00:39.928Z,13.85
2024-02-29T12:03:43.151Z,13.80
2024-02-29T12:06:48.387Z,13.48
2024-02-29T12:09:51.493Z,13.90
2024-02-29T12:12:54.526Z,13.75
2024-02-29T12:15:58.669Z,14.25
2024-02-29T12:19:02.097Z,13.90
2024-02-29T12:22:15.215Z,13.60
2024-02-29T12:25:19.187Z,13.30
2024-02-29T12:28:22.020Z,13.63
2024-02-29T12:31:24.859Z,13.55
2024-02-29T12:34:29.031Z,12.83
2024-02-29T12:37:31.891Z,13.77
2024-02-29T12:40:35.022Z,14.13
2024-02-29T12:43:38.312Z,13.25
2024-02-29T12:46:40.985Z,14.60
2024-02-29T12:49:44.381Z,13.90
2024-02-29T12:52:49.842Z,14.63
2024-02-29T12:55:53.663Z,15.60
2024-02-29T12:58:56.569Z,13.68
2024-02-29T13:02:01.141Z,14.13
2024-02-29T13:05:04.567Z,12.73
2024-02-29T13:08:10.042Z,12.73
2024-02-29T13:11:13.041Z,13.10
2024-02-29T13:14:16.949Z,12.68
2024-02-29T13:17:21.110Z,12.88
2024-02-29T13:20:23.912Z,12.30
2024-02-29T13:23:26.679Z,14.15
2024-02-29T13:26:29.402Z,12.05
2024-02-29T13:29:34.071Z,12.40
2024-02-29T13:32:36.874Z,14.18
2024-02-29T13:35:39.629Z,12.50
2024-02-29T13:38:42.764Z,12.35
2024-02-29T13:41:46.562Z,12.80
2024-02-29T13:44:51.059Z,12.45
2024-02-29T13:47:55.900Z,12.50
2024-02-29T13:50:59.314Z,13.63
2024-02-29T13:54:02.236Z,16.83
2024-02-29T13:57:05.630Z,16.00
2024-02-29T14:00:10.167Z,17.27
2024-02-29T14:03:16.859Z,15.10
2024-02-29T14:06:20.193Z,16.03
2024-02-29T14:09:22.907Z,15.75
2024-02-29T14:12:28.525Z,17.42
2024-02-29T14:15:31.392Z,14.18
2024-02-29T14:18:34.702Z,11.85
2024-02-29T14:21:37.632Z,11.17
2024-02-29T14:24:40.529Z,12.60
2024-02-29T14:27:43.790Z,13.35
2024-02-29T14:30:46.649Z,12.73
2024-02-29T14:33:51.845Z,12.20
2024-02-29T14:36:55.161Z,11.33
2024-02-29T14:39:58.724Z,12.60
2024-02-29T14:43:01.755Z,12.30
2024-02-29T14:46:07.818Z,12.05
2024-02-29T14:49:12.071Z,11.55
2024-02-29T14:52:15.185Z,11.33
2024-02-29T14:55:18.443Z,11.77
2024-02-29T14:58:22.406Z,12.38
2024-02-29T15:01:25.939Z,12.70
2024-02-29T15:04:29.032Z,12.43
2024-02-29T15:07:33.505Z,11.83
2024-02-29T15:10:36.444Z,11.63
2024-02-29T15:13:39.549Z,11.52
2024-02-29T15:16:46.702Z,12.55
2024-02-29T15:19:51.543Z,11.20
2024-02-29T15:23:04.830Z,10.87
2024-02-29T15:26:12.077Z,10.80
2024-02-29T15:29:16.415Z,10.77
2024-02-29T15:32:21.318Z,10.07
2024-02-29T15:35:31.589Z,11.40
2024-02-29T15:38:34.471Z,10.23
2024-02-29T15:41:38.636Z,9.10
2024-02-29T15:44:41.393Z,10.45
2024-02-29T15:47:44.897Z,10.18
2024-02-29T15:50:47.625Z,10.25
2024-02-29T15:53:50.379Z,9.97
2024-02-29T15:56:53.269Z,8.10
2024-02-29T15:59:57.014Z,9.57
2024-02-29T16:02:59.800Z,10.55
2024-02-29T16:06:02.545Z,10.65
2024-02-29T16:09:05.841Z,11.43
2024-02-29T16:12:12.578Z,11.95
2024-02-29T16:15:16.275Z,12.20
2024-02-29T16:18:18.991Z,11.23
2024-02-29T16:21:22.148Z,10.65
2024-02-29T16:24:24.916Z,10.73
2024-02-29T16:27:27.709Z,10.32
2024-02-29T16:30:30.814Z,9.77
2024-02-29T16:33:33.525Z,11.10
2024-02-29T16:36:38.289Z,10.90
2024-02-29T16:39:41.409Z,10.63
2024-02-29T16:42:56.275Z,10.70
2024-02-29T16:46:00.020Z,10.95
2024-02-29T16:49:03.263Z,10.95
2024-02-29T16:52:06.636Z,10.32
2024-02-29T16:55:09.866Z,11.03
2024-02-29T16:58:14.179Z,11.73
2024-02-29T17:01:17.075Z,10.95
2024-02-29T17:04:20.302Z,11.50
2024-02-29T17:07:23.632Z,11.93
2024-02-29T17:10:27.776Z,12.37
2024-02-29T17:13:30.883Z,13.13
2024-02-29T17:16:34.016Z,12.45
2024-02-29T17:19:36.766Z,12.50
2024-02-29T17:22:40.442Z,13.80
2024-02-29T17:25:43.400Z,15.07
2024-02-29T17:28:48.254Z,14.57
2024-02-29T17:31:51.327Z,14.30
2024-02-29T17:34:54.100Z,13.48
2024-02-29T17:37:58.412Z,20.27
2024-02-29T17:41:01.097Z,27.83
2024-02-29T17:44:04.142Z,25.33
2024-02-29T17:47:06.984Z,29.92
2024-02-29T17:50:20.856Z,35.17
2024-02-29T17:53:24.876Z,38.15
2024-02-29T17:56:27.637Z,29.90
2024-02-29T17:59:30.751Z,45.33
2024-02-29T18:02:34.211Z,39.45
2024-02-29T18:05:37.367Z,32.53
2024-02-29T18:08:40.175Z,29.92
2024-02-29T18:11:42.959Z,31.57
2024-02-29T18:14:45.788Z,26.40
2024-02-29T18:17:49.166Z,19.90
2024-02-29T18:20:52.193Z,18.95
2024-02-29T18:23:55.454Z,17.42
2024-02-29T18:26:58.679Z,15.30
2024-02-29T18:30:01.539Z,15.30
2024-02-29T18:33:04.994Z,14.23
2024-02-29T18:36:08.411Z,13.75
2024-02-29T18:39:15.147Z,14.23
2024-02-29T18:42:18.581Z,14.07
2024-02-29T18:45:21.671Z,15.35
2024-02-29T18:48:24.400Z,17.92
2024-02-29T18:51:27.767Z,17.45
2024-02-29T18:54:30.784Z,18.92
2024-02-29T18:57:33.462Z,20.23
2024-02-29T19:00:36.621Z,21.25
2024-02-29T19:03:39.591Z,19.80
2024-02-29T19:06:42.979Z,21.00
2024-02-29T19:09:46.829Z,21.90
2024-02-29T19:12:49.725Z,21.83
2024-02-29T19:15:53.148Z,22.52
2024-02-29T19:18:56.556Z,20.27
2024-02-29T19:21:59.774Z,21.55
2024-02-29T19:25:02.497Z,19.23
2024-02-29T19:28:05.478Z,18.27
2024-02-29T19:31:08.647Z,19.90
2024-02-29T19:34:11.874Z,22.50
2024-02-29T19:37:14.609Z,28.10
2024-02-29T19:40:17.527Z,25.10
2024-02-29T19:43:23.533Z,20.47
2024-02-29T19:46:26.908Z,18.58
2024-02-29T19:49:29.648Z,18.75
2024-02-29T19:52:35.913Z,21.15
2024-02-29T19:55:43.465Z,17.75
2024-02-29T19:58:46.257Z,17.47
2024-02-29T20:01:49.336Z,16.65
2024-02-29T20:04:52.756Z,15.27
2024-02-29T20:07:55.901Z,15.48
2024-02-29T20:10:58.823Z,14.00
2024-02-29T20:14:05.438Z,14.10
2024-02-29T20:17:08.958Z,14.48
2024-02-29T20:20:12.269Z,13.52
2024-02-29T20:23:15.173Z,13.95
2024-02-29T20:26:18.306Z,13.98
2024-02-29T20:29:21.335Z,15.43
2024-02-29T20:32:24.166Z,15.75
2024-02-29T20:35:26.874Z,15.98
2024-02-29T20:38:30.914Z,15.93
2024-02-29T20:41:33.665Z,15.50
2024-02-29T20:44:37.019Z,15.20
2024-02-29T20:47:40.531Z,16.35
2024-02-29T20:50:43.297Z,15.30
2024-02-29T20:53:45.994Z,15.73
2024-02-29T20:56:48.700Z,17.10
2024-02-29T20:59:51.602Z,15.60
2024-02-29T21:02:54.930Z,16.00
2024-02-29T21:05:58.402Z,17.13
2024-02-29T21:09:01.191Z,16.52
2024-02-29T21:12:04.127Z,15.57
2024-02-29T21:15:07.270Z,16.63
2024-02-29T21:18:10.116Z,15.73
2024-02-29T21:21:12.894Z,16.38
2024-02-29T21:24:16.138Z,16.60
2024-02-29T21:27:18.888Z,18.08
2024-02-29T21:30:21.638Z,16.13
2024-02-29T21:33:24.414Z,17.08
2024-02-29T21:36:27.194Z,17.30
2024-02-29T21:39:36.556Z,17.83
2024-02-29T21:42:43.219Z,17.25
2024-02-29T21:45:46.050Z,17.10
2024-02-29T21:48:50.076Z,17.67
2024-02-29T21:51:52.834Z,17.05
2024-02-29T21:54:55.625Z,17.48
2024-02-29T21:57:58.376Z,16.55
2024-02-29T22:01:01.301Z,14.83
2024-02-29T22:04:04.213Z,15.65
2024-02-29T22:07:07.373Z,16.30
2024-02-29T22:10:11.623Z,16.08
2024-02-29T22:13:14.399Z,16.63
2024-02-29T22:16:17.135Z,16.73
2024-02-29T22:19:20.727Z,15.57
2024-02-29T22:22:23.641Z,16.67
2024-02-29T22:25:26.527Z,16.02
2024-02-29T22:28:29.317Z,16.08
2024-02-29T22:31:32.512Z,16.03
2024-02-29T22:34:35.369Z,15.38
2024-02-29T22:37:38.470Z,15.45
2024-02-29T22:40:41.220Z,16.08
2024-02-29T22:43:44.061Z,15.82
2024-02-29T22:46:47.133Z,15.93
2024-02-29T22:49:49.850Z,16.10
2024-02-29T22:52:52.547Z,15.15
2024-02-29T22:55:56.495Z,15.45
2024-02-29T22:58:59.166Z,15.45
2024-02-29T23:02:02.162Z,15.40
2024-02-29T23:05:06.506Z,15.85
2024-02-29T23:08:11.588Z,15.10
2024-02-29T23:11:14.443Z,15.93
2024-02-29T23:14:17.314Z,14.85
2024-02-29T23:17:20.244Z,14.87
2024-02-29T23:20:23.754Z,15.18
2024-02-29T23:23:26.408Z,14.43
2024-02-29T23:26:29.064Z,14.45
2024-02-29T23:29:31.785Z,13.88
2024-02-29T23:32:35.190Z,14.70
2024-02-29T23:35:37.931Z,13.65
2024-02-29T23:38:40.627Z,12.80
2024-02-29T23:41:43.329Z,13.35
2024-02-29T23:44:46.030Z,12.82
2024-02-29T23:47:48.727Z,14.33
2024-02-29T23:50:51.448Z,13.60
2024-02-29T23:53:54.386Z,13.23
2024-02-29T23:56:59.935Z,13.88
